sensor_id;sensor_type;location;lat;lon;timestamp;P1;durP1;ratioP1;P2;durP2;ratioP2
30408;SDS011;17207;52.960;5.916;2023-02-11T00:01:54;6.20;;;1.80;;
30408;SDS011;17207;52.960;5.916;2023-02-11T00:04:20;5.85;;;1.88;;
30408;SDS011;17207;52.960;5.916;2023-02-11T00:06:46;4.25;;;1.80;;
30408;SDS011;17207;52.960;5.916;2023-02-11T00:09:12;6.80;;;2.28;;
30408;SDS011;17207;52.960;5.916;2023-02-11T00:11:38;7.97;;;2.55;;
30408;SDS011;17207;52.960;5.916;2023-02-11T00:14:05;4.97;;;1.73;;
30408;SDS011;17207;52.960;5.916;2023-02-11T00:16:34;14.45;;;2.58;;
30408;SDS011;17207;52.960;5.916;2023-02-11T00:19:01;7.20;;;2.03;;
30408;SDS011;17207;52.960;5.916;2023-02-11T00:21:27;8.43;;;2.00;;
30408;SDS011;17207;52.960;5.916;2023-02-11T00:23:53;4.28;;;1.88;;
30408;SDS011;17207;52.960;5.916;2023-02-11T00:26:22;6.32;;;2.28;;
30408;SDS011;17207;52.960;5.916;2023-02-11T00:28:49;6.40;;;2.13;;
30408;SDS011;17207;52.960;5.916;2023-02-11T00:31:15;6.00;;;1.88;;
30408;SDS011;17207;52.960;5.916;2023-02-11T00:33:42;4.88;;;1.83;;
30408;SDS011;17207;52.960;5.916;2023-02-11T00:36:09;7.63;;;2.42;;
30408;SDS011;17207;52.960;5.916;2023-02-11T00:38:36;5.53;;;1.88;;
30408;SDS011;17207;52.960;5.916;2023-02-11T00:41:02;5.55;;;2.15;;
30408;SDS011;17207;52.960;5.916;2023-02-11T00:43:28;6.30;;;2.40;;
30408;SDS011;17207;52.960;5.916;2023-02-11T00:45:55;8.23;;;2.00;;
30408;SDS011;17207;52.960;5.916;2023-02-11T00:48:21;5.20;;;1.83;;
30408;SDS011;17207;52.960;5.916;2023-02-11T00:50:47;6.88;;;2.05;;
30408;SDS011;17207;52.960;5.916;2023-02-11T00:53:13;6.38;;;2.05;;
30408;SDS011;17207;52.960;5.916;2023-02-11T00:55:39;5.53;;;2.20;;
30408;SDS011;17207;52.960;5.916;2023-02-11T00:58:05;4.30;;;1.45;;
30408;SDS011;17207;52.960;5.916;2023-02-11T01:00:31;5.88;;;2.03;;
30408;SDS011;17207;52.960;5.916;2023-02-11T01:02:57;4.15;;;1.48;;
30408;SDS011;17207;52.960;5.916;2023-02-11T01:05:23;3.70;;;1.90;;
30408;SDS011;17207;52.960;5.916;2023-02-11T01:07:49;4.82;;;1.67;;
30408;SDS011;17207;52.960;5.916;2023-02-11T01:10:15;4.97;;;1.83;;
30408;SDS011;17207;52.960;5.916;2023-02-11T01:12:41;4.70;;;1.88;;
30408;SDS011;17207;52.960;5.916;2023-02-11T01:15:07;3.78;;;1.58;;
30408;SDS011;17207;52.960;5.916;2023-02-11T01:17:34;5.25;;;2.10;;
30408;SDS011;17207;52.960;5.916;2023-02-11T01:20:02;5.63;;;1.75;;
30408;SDS011;17207;52.960;5.916;2023-02-11T01:22:28;4.50;;;1.92;;
30408;SDS011;17207;52.960;5.916;2023-02-11T01:24:55;5.45;;;1.83;;
30408;SDS011;17207;52.960;5.916;2023-02-11T01:27:21;4.95;;;1.60;;
30408;SDS011;17207;52.960;5.916;2023-02-11T01:29:47;7.68;;;1.95;;
30408;SDS011;17207;52.960;5.916;2023-02-11T01:32:13;3.42;;;1.73;;
30408;SDS011;17207;52.960;5.916;2023-02-11T01:34:39;7.40;;;2.20;;
30408;SDS011;17207;52.960;5.916;2023-02-11T01:37:05;5.47;;;2.10;;
30408;SDS011;17207;52.960;5.916;2023-02-11T01:39:34;5.47;;;1.90;;
30408;SDS011;17207;52.960;5.916;2023-02-11T01:42:00;4.97;;;2.20;;
30408;SDS011;17207;52.960;5.916;2023-02-11T01:44:31;7.25;;;1.98;;
30408;SDS011;17207;52.960;5.916;2023-02-11T01:46:57;7.30;;;1.83;;
30408;SDS011;17207;52.960;5.916;2023-02-11T01:49:26;4.70;;;1.80;;
30408;SDS011;17207;52.960;5.916;2023-02-11T01:54:20;4.10;;;1.92;;
30408;SDS011;17207;52.960;5.916;2023-02-11T01:57:05;4.75;;;1.77;;
30408;SDS011;17207;52.960;5.916;2023-02-11T02:02:35;7.13;;;1.80;;
30408;SDS011;17207;52.960;5.916;2023-02-11T02:10:29;7.90;;;1.58;;
30408;SDS011;17207;52.960;5.916;2023-02-11T02:12:56;7.70;;;2.28;;
30408;SDS011;17207;52.960;5.916;2023-02-11T02:18:01;2.70;;;1.33;;
30408;SDS011;17207;52.960;5.916;2023-02-11T02:20:42;5.70;;;1.60;;
30408;SDS011;17207;52.960;5.916;2023-02-11T02:23:21;4.28;;;1.48;;
30408;SDS011;17207;52.960;5.916;2023-02-11T02:25:58;4.00;;;1.67;;
30408;SDS011;17207;52.960;5.916;2023-02-11T02:33:44;3.80;;;1.85;;
30408;SDS011;17207;52.960;5.916;2023-02-11T02:39:04;3.28;;;2.08;;
30408;SDS011;17207;52.960;5.916;2023-02-11T02:41:31;5.43;;;1.80;;
30408;SDS011;17207;52.960;5.916;2023-02-11T02:43:57;5.40;;;1.60;;
30408;SDS011;17207;52.960;5.916;2023-02-11T02:46:25;4.10;;;1.77;;
30408;SDS011;17207;52.960;5.916;2023-02-11T02:48:51;5.50;;;1.95;;
30408;SDS011;17207;52.960;5.916;2023-02-11T03:09:43;3.22;;;1.63;;
30408;SDS011;17207;52.960;5.916;2023-02-11T03:12:10;5.32;;;1.65;;
30408;SDS011;17207;52.960;5.916;2023-02-11T03:14:38;5.10;;;1.92;;
30408;SDS011;17207;52.960;5.916;2023-02-11T03:17:05;6.10;;;2.47;;
30408;SDS011;17207;52.960;5.916;2023-02-11T03:19:34;3.78;;;1.27;;
30408;SDS011;17207;52.960;5.916;2023-02-11T03:22:02;5.10;;;1.60;;
30408;SDS011;17207;52.960;5.916;2023-02-11T03:26:57;4.53;;;1.85;;
30408;SDS011;17207;52.960;5.916;2023-02-11T03:31:53;8.93;;;1.75;;
30408;SDS011;17207;52.960;5.916;2023-02-11T03:36:57;4.63;;;1.80;;
30408;SDS011;17207;52.960;5.916;2023-02-11T03:39:26;4.57;;;1.65;;
30408;SDS011;17207;52.960;5.916;2023-02-11T03:41:54;3.65;;;1.55;;
30408;SDS011;17207;52.960;5.916;2023-02-11T03:44:20;4.35;;;1.60;;
30408;SDS011;17207;52.960;5.916;2023-02-11T03:46:48;3.92;;;1.90;;
30408;SDS011;17207;52.960;5.916;2023-02-11T03:49:16;4.82;;;1.42;;
30408;SDS011;17207;52.960;5.916;2023-02-11T03:51:43;3.80;;;1.27;;
30408;SDS011;17207;52.960;5.916;2023-02-11T03:54:10;3.90;;;1.75;;
30408;SDS011;17207;52.960;5.916;2023-02-11T03:56:41;4.82;;;1.58;;
30408;SDS011;17207;52.960;5.916;2023-02-11T03:59:09;7.93;;;2.08;;
30408;SDS011;17207;52.960;5.916;2023-02-11T04:01:35;4.45;;;1.83;;
30408;SDS011;17207;52.960;5.916;2023-02-11T04:04:01;3.58;;;1.77;;
30408;SDS011;17207;52.960;5.916;2023-02-11T04:06:28;3.85;;;1.55;;
30408;SDS011;17207;52.960;5.916;2023-02-11T04:08:54;6.03;;;1.42;;
30408;SDS011;17207;52.960;5.916;2023-02-11T04:11:20;3.70;;;1.42;;
30408;SDS011;17207;52.960;5.916;2023-02-11T04:13:46;2.83;;;1.45;;
30408;SDS011;17207;52.960;5.916;2023-02-11T04:16:12;4.55;;;1.55;;
30408;SDS011;17207;52.960;5.916;2023-02-11T04:18:38;2.30;;;1.30;;
30408;SDS011;17207;52.960;5.916;2023-02-11T04:21:04;3.40;;;1.42;;
30408;SDS011;17207;52.960;5.916;2023-02-11T04:23:31;4.60;;;1.40;;
30408;SDS011;17207;52.960;5.916;2023-02-11T04:25:57;4.20;;;1.73;;
30408;SDS011;17207;52.960;5.916;2023-02-11T04:28:23;3.13;;;1.50;;
30408;SDS011;17207;52.960;5.916;2023-02-11T04:30:50;3.83;;;1.80;;
30408;SDS011;17207;52.960;5.916;2023-02-11T04:33:16;3.55;;;1.23;;
30408;SDS011;17207;52.960;5.916;2023-02-11T04:35:42;3.20;;;1.45;;
30408;SDS011;17207;52.960;5.916;2023-02-11T04:38:08;3.45;;;1.42;;
30408;SDS011;17207;52.960;5.916;2023-02-11T04:40:34;3.13;;;1.40;;
30408;SDS011;17207;52.960;5.916;2023-02-11T04:43:01;4.10;;;1.88;;
30408;SDS011;17207;52.960;5.916;2023-02-11T04:45:27;3.53;;;1.63;;
30408;SDS011;17207;52.960;5.916;2023-02-11T04:47:53;5.63;;;1.67;;
30408;SDS011;17207;52.960;5.916;2023-02-11T04:50:19;5.88;;;1.70;;
30408;SDS011;17207;52.960;5.916;2023-02-11T04:52:45;4.15;;;1.77;;
30408;SDS011;17207;52.960;5.916;2023-02-11T04:55:11;3.33;;;1.38;;
30408;SDS011;17207;52.960;5.916;2023-02-11T04:57:37;3.55;;;1.60;;
30408;SDS011;17207;52.960;5.916;2023-02-11T05:00:03;4.85;;;1.35;;
30408;SDS011;17207;52.960;5.916;2023-02-11T05:02:29;5.07;;;1.63;;
30408;SDS011;17207;52.960;5.916;2023-02-11T05:04:55;2.10;;;1.35;;
30408;SDS011;17207;52.960;5.916;2023-02-11T05:07:21;5.25;;;1.60;;
30408;SDS011;17207;52.960;5.916;2023-02-11T05:09:47;4.53;;;1.75;;
30408;SDS011;17207;52.960;5.916;2023-02-11T05:12:13;4.15;;;1.75;;
30408;SDS011;17207;52.960;5.916;2023-02-11T05:14:39;3.15;;;1.67;;
30408;SDS011;17207;52.960;5.916;2023-02-11T05:17:05;3.72;;;1.85;;
30408;SDS011;17207;52.960;5.916;2023-02-11T05:19:32;6.97;;;1.80;;
30408;SDS011;17207;52.960;5.916;2023-02-11T05:21:58;1.95;;;1.30;;
30408;SDS011;17207;52.960;5.916;2023-02-11T05:24:24;2.30;;;1.23;;
30408;SDS011;17207;52.960;5.916;2023-02-11T05:26:50;2.85;;;1.38;;
30408;SDS011;17207;52.960;5.916;2023-02-11T05:29:16;5.97;;;1.88;;
30408;SDS011;17207;52.960;5.916;2023-02-11T05:31:42;3.97;;;1.83;;
30408;SDS011;17207;52.960;5.916;2023-02-11T05:34:08;3.85;;;1.60;;
30408;SDS011;17207;52.960;5.916;2023-02-11T05:36:34;2.53;;;1.40;;
30408;SDS011;17207;52.960;5.916;2023-02-11T05:39:00;5.28;;;1.10;;
30408;SDS011;17207;52.960;5.916;2023-02-11T05:41:26;1.60;;;1.50;;
30408;SDS011;17207;52.960;5.916;2023-02-11T05:43:52;2.72;;;1.50;;
30408;SDS011;17207;52.960;5.916;2023-02-11T05:46:18;2.17;;;1.42;;
30408;SDS011;17207;52.960;5.916;2023-02-11T05:48:44;3.13;;;1.63;;
30408;SDS011;17207;52.960;5.916;2023-02-11T05:51:10;5.90;;;1.90;;
30408;SDS011;17207;52.960;5.916;2023-02-11T05:53:36;4.20;;;1.63;;
30408;SDS011;17207;52.960;5.916;2023-02-11T05:56:02;3.58;;;1.83;;
30408;SDS011;17207;52.960;5.916;2023-02-11T05:58:28;2.67;;;1.60;;
30408;SDS011;17207;52.960;5.916;2023-02-11T06:00:55;3.08;;;1.45;;
30408;SDS011;17207;52.960;5.916;2023-02-11T06:03:21;5.22;;;1.63;;
30408;SDS011;17207;52.960;5.916;2023-02-11T06:05:47;3.03;;;1.50;;
30408;SDS011;17207;52.960;5.916;2023-02-11T06:08:13;4.05;;;1.27;;
30408;SDS011;17207;52.960;5.916;2023-02-11T06:10:39;4.25;;;1.58;;
30408;SDS011;17207;52.960;5.916;2023-02-11T06:13:07;2.20;;;1.23;;
30408;SDS011;17207;52.960;5.916;2023-02-11T06:15:33;2.85;;;1.30;;
30408;SDS011;17207;52.960;5.916;2023-02-11T06:17:59;2.97;;;1.45;;
30408;SDS011;17207;52.960;5.916;2023-02-11T06:20:25;3.50;;;1.38;;
30408;SDS011;17207;52.960;5.916;2023-02-11T06:22:51;4.78;;;1.75;;
30408;SDS011;17207;52.960;5.916;2023-02-11T06:25:17;2.08;;;1.52;;
30408;SDS011;17207;52.960;5.916;2023-02-11T06:27:43;2.92;;;1.80;;
30408;SDS011;17207;52.960;5.916;2023-02-11T06:30:09;4.03;;;1.80;;
30408;SDS011;17207;52.960;5.916;2023-02-11T06:32:35;6.90;;;1.75;;
30408;SDS011;17207;52.960;5.916;2023-02-11T06:35:01;1.83;;;1.60;;
30408;SDS011;17207;52.960;5.916;2023-02-11T06:40:13;4.57;;;1.77;;
30408;SDS011;17207;52.960;5.916;2023-02-11T06:42:40;3.50;;;1.75;;
30408;SDS011;17207;52.960;5.916;2023-02-11T06:45:06;4.10;;;1.50;;
30408;SDS011;17207;52.960;5.916;2023-02-11T06:47:35;6.22;;;2.10;;
30408;SDS011;17207;52.960;5.916;2023-02-11T06:50:01;3.78;;;1.67;;
30408;SDS011;17207;52.960;5.916;2023-02-11T06:52:27;3.10;;;1.58;;
30408;SDS011;17207;52.960;5.916;2023-02-11T06:54:53;6.30;;;1.80;;
30408;SDS011;17207;52.960;5.916;2023-02-11T06:57:19;1.55;;;1.25;;
30408;SDS011;17207;52.960;5.916;2023-02-11T06:59:45;3.65;;;1.65;;
30408;SDS011;17207;52.960;5.916;2023-02-11T07:02:11;4.20;;;1.45;;
30408;SDS011;17207;52.960;5.916;2023-02-11T07:04:37;2.20;;;1.35;;
30408;SDS011;17207;52.960;5.916;2023-02-11T07:07:03;5.80;;;2.13;;
30408;SDS011;17207;52.960;5.916;2023-02-11T07:09:29;6.22;;;1.77;;
30408;SDS011;17207;52.960;5.916;2023-02-11T07:11:55;4.53;;;1.27;;
30408;SDS011;17207;52.960;5.916;2023-02-11T07:14:21;5.35;;;2.00;;
30408;SDS011;17207;52.960;5.916;2023-02-11T07:16:47;5.57;;;2.80;;
30408;SDS011;17207;52.960;5.916;2023-02-11T07:19:13;2.58;;;1.60;;
30408;SDS011;17207;52.960;5.916;2023-02-11T07:21:39;4.18;;;1.77;;
30408;SDS011;17207;52.960;5.916;2023-02-11T07:24:06;8.70;;;1.98;;
30408;SDS011;17207;52.960;5.916;2023-02-11T07:26:32;5.40;;;2.45;;
30408;SDS011;17207;52.960;5.916;2023-02-11T07:28:58;4.38;;;2.05;;
30408;SDS011;17207;52.960;5.916;2023-02-11T07:31:26;5.18;;;2.00;;
30408;SDS011;17207;52.960;5.916;2023-02-11T07:33:53;12.07;;;2.22;;
30408;SDS011;17207;52.960;5.916;2023-02-11T07:36:19;4.80;;;1.48;;
30408;SDS011;17207;52.960;5.916;2023-02-11T07:38:45;3.40;;;1.45;;
30408;SDS011;17207;52.960;5.916;2023-02-11T07:41:13;4.93;;;1.98;;
30408;SDS011;17207;52.960;5.916;2023-02-11T07:43:39;3.33;;;1.50;;
30408;SDS011;17207;52.960;5.916;2023-02-11T07:46:06;6.70;;;2.05;;
30408;SDS011;17207;52.960;5.916;2023-02-11T07:48:32;4.00;;;1.75;;
30408;SDS011;17207;52.960;5.916;2023-02-11T07:53:31;7.70;;;1.83;;
30408;SDS011;17207;52.960;5.916;2023-02-11T07:55:57;3.67;;;1.75;;
30408;SDS011;17207;52.960;5.916;2023-02-11T07:58:23;5.95;;;1.95;;
30408;SDS011;17207;52.960;5.916;2023-02-11T08:00:49;6.82;;;2.28;;
30408;SDS011;17207;52.960;5.916;2023-02-11T08:03:15;5.13;;;1.88;;
30408;SDS011;17207;52.960;5.916;2023-02-11T08:05:41;3.58;;;1.60;;
30408;SDS011;17207;52.960;5.916;2023-02-11T08:08:07;5.68;;;1.95;;
30408;SDS011;17207;52.960;5.916;2023-02-11T08:10:33;4.53;;;1.65;;
30408;SDS011;17207;52.960;5.916;2023-02-11T08:13:00;4.70;;;1.73;;
30408;SDS011;17207;52.960;5.916;2023-02-11T08:15:26;4.05;;;1.80;;
30408;SDS011;17207;52.960;5.916;2023-02-11T08:17:52;6.30;;;1.60;;
30408;SDS011;17207;52.960;5.916;2023-02-11T08:20:19;2.97;;;1.60;;
30408;SDS011;17207;52.960;5.916;2023-02-11T08:22:45;5.85;;;1.50;;
30408;SDS011;17207;52.960;5.916;2023-02-11T08:25:11;3.80;;;1.58;;
30408;SDS011;17207;52.960;5.916;2023-02-11T08:27:37;3.30;;;1.63;;
30408;SDS011;17207;52.960;5.916;2023-02-11T08:30:03;6.00;;;1.60;;
30408;SDS011;17207;52.960;5.916;2023-02-11T08:32:29;5.20;;;1.52;;
30408;SDS011;17207;52.960;5.916;2023-02-11T08:34:55;3.10;;;1.50;;
30408;SDS011;17207;52.960;5.916;2023-02-11T08:37:21;2.63;;;1.52;;
30408;SDS011;17207;52.960;5.916;2023-02-11T08:39:47;4.78;;;1.60;;
30408;SDS011;17207;52.960;5.916;2023-02-11T08:42:14;5.28;;;1.75;;
30408;SDS011;17207;52.960;5.916;2023-02-11T08:44:40;2.63;;;1.33;;
30408;SDS011;17207;52.960;5.916;2023-02-11T08:47:06;2.92;;;1.05;;
30408;SDS011;17207;52.960;5.916;2023-02-11T08:49:32;3.47;;;1.85;;
30408;SDS011;17207;52.960;5.916;2023-02-11T08:51:58;3.38;;;1.45;;
30408;SDS011;17207;52.960;5.916;2023-02-11T08:54:28;2.80;;;1.45;;
30408;SDS011;17207;52.960;5.916;2023-02-11T08:56:54;3.95;;;1.50;;
30408;SDS011;17207;52.960;5.916;2023-02-11T08:59:20;2.75;;;1.13;;
30408;SDS011;17207;52.960;5.916;2023-02-11T09:01:46;10.52;;;1.65;;
30408;SDS011;17207;52.960;5.916;2023-02-11T09:04:12;3.92;;;1.38;;
30408;SDS011;17207;52.960;5.916;2023-02-11T09:06:38;3.75;;;1.30;;
30408;SDS011;17207;52.960;5.916;2023-02-11T09:09:04;4.30;;;1.25;;
30408;SDS011;17207;52.960;5.916;2023-02-11T09:11:31;4.13;;;1.50;;
30408;SDS011;17207;52.960;5.916;2023-02-11T09:13:58;5.38;;;1.60;;
30408;SDS011;17207;52.960;5.916;2023-02-11T09:16:25;2.42;;;1.50;;
30408;SDS011;17207;52.960;5.916;2023-02-11T09:18:52;4.07;;;1.53;;
30408;SDS011;17207;52.960;5.916;2023-02-11T09:21:18;2.22;;;1.42;;
30408;SDS011;17207;52.960;5.916;2023-02-11T09:23:45;1.00;;;0.90;;
30408;SDS011;17207;52.960;5.916;2023-02-11T09:26:21;3.28;;;1.15;;
30408;SDS011;17207;52.960;5.916;2023-02-11T09:28:48;4.05;;;1.60;;
30408;SDS011;17207;52.960;5.916;2023-02-11T09:31:16;5.55;;;1.30;;
30408;SDS011;17207;52.960;5.916;2023-02-11T09:33:43;2.58;;;1.08;;
30408;SDS011;17207;52.960;5.916;2023-02-11T09:36:12;2.47;;;1.15;;
30408;SDS011;17207;52.960;5.916;2023-02-11T09:38:38;2.47;;;1.20;;
30408;SDS011;17207;52.960;5.916;2023-02-11T09:41:04;2.55;;;1.23;;
30408;SDS011;17207;52.960;5.916;2023-02-11T09:43:36;2.10;;;1.00;;
30408;SDS011;17207;52.960;5.916;2023-02-11T09:46:03;2.55;;;1.40;;
30408;SDS011;17207;52.960;5.916;2023-02-11T09:48:31;4.07;;;1.23;;
30408;SDS011;17207;52.960;5.916;2023-02-11T09:51:01;2.55;;;1.08;;
30408;SDS011;17207;52.960;5.916;2023-02-11T09:53:30;2.78;;;1.05;;
30408;SDS011;17207;52.960;5.916;2023-02-11T09:56:00;3.03;;;1.30;;
30408;SDS011;17207;52.960;5.916;2023-02-11T09:58:37;1.70;;;1.08;;
30408;SDS011;17207;52.960;5.916;2023-02-11T10:06:22;3.55;;;1.08;;
30408;SDS011;17207;52.960;5.916;2023-02-11T10:24:36;3.15;;;1.25;;
30408;SDS011;17207;52.960;5.916;2023-02-11T10:27:11;1.20;;;1.10;;
30408;SDS011;17207;52.960;5.916;2023-02-11T10:29:42;3.17;;;1.20;;
30408;SDS011;17207;52.960;5.916;2023-02-11T10:32:14;2.05;;;0.90;;
30408;SDS011;17207;52.960;5.916;2023-02-11T10:34:45;3.88;;;1.20;;
30408;SDS011;17207;52.960;5.916;2023-02-11T10:37:12;3.83;;;1.42;;
30408;SDS011;17207;52.960;5.916;2023-02-11T10:39:39;3.60;;;1.30;;
30408;SDS011;17207;52.960;5.916;2023-02-11T10:42:06;2.00;;;1.27;;
30408;SDS011;17207;52.960;5.916;2023-02-11T10:45:18;3.08;;;0.95;;
30408;SDS011;17207;52.960;5.916;2023-02-11T10:47:25;3.83;;;1.15;;
30408;SDS011;17207;52.960;5.916;2023-02-11T10:49:52;3.90;;;1.60;;
30408;SDS011;17207;52.960;5.916;2023-02-11T10:55:23;2.08;;;1.10;;
30408;SDS011;17207;52.960;5.916;2023-02-11T11:00:36;1.13;;;1.00;;
30408;SDS011;17207;52.960;5.916;2023-02-11T11:03:04;4.80;;;1.23;;
30408;SDS011;17207;52.960;5.916;2023-02-11T11:05:33;2.80;;;0.95;;
30408;SDS011;17207;52.960;5.916;2023-02-11T11:08:06;3.65;;;1.20;;
30408;SDS011;17207;52.960;5.916;2023-02-11T11:10:37;1.85;;;1.15;;
30408;SDS011;17207;52.960;5.916;2023-02-11T11:18:37;2.20;;;0.98;;
30408;SDS011;17207;52.960;5.916;2023-02-11T11:21:04;1.95;;;1.00;;
30408;SDS011;17207;52.960;5.916;2023-02-11T11:23:31;4.43;;;1.40;;
30408;SDS011;17207;52.960;5.916;2023-02-11T11:26:13;2.60;;;1.20;;
30408;SDS011;17207;52.960;5.916;2023-02-11T11:31:31;2.22;;;0.90;;
30408;SDS011;17207;52.960;5.916;2023-02-11T11:33:59;3.10;;;1.15;;
30408;SDS011;17207;52.960;5.916;2023-02-11T11:36:35;4.80;;;1.10;;
30408;SDS011;17207;52.960;5.916;2023-02-11T11:39:24;3.38;;;1.20;;
30408;SDS011;17207;52.960;5.916;2023-02-11T11:41:53;1.27;;;0.85;;
30408;SDS011;17207;52.960;5.916;2023-02-11T11:44:35;2.83;;;1.27;;
30408;SDS011;17207;52.960;5.916;2023-02-11T11:49:44;1.77;;;0.70;;
30408;SDS011;17207;52.960;5.916;2023-02-11T11:54:45;1.52;;;0.95;;
30408;SDS011;17207;52.960;5.916;2023-02-11T11:57:17;1.92;;;0.93;;
30408;SDS011;17207;52.960;5.916;2023-02-11T11:59:44;2.35;;;0.88;;
30408;SDS011;17207;52.960;5.916;2023-02-11T12:22:51;0.88;;;0.82;;
30408;SDS011;17207;52.960;5.916;2023-02-11T12:25:27;3.55;;;1.20;;
30408;SDS011;17207;52.960;5.916;2023-02-11T12:43:38;2.25;;;1.00;;
30408;SDS011;17207;52.960;5.916;2023-02-11T12:48:56;1.58;;;0.80;;
30408;SDS011;17207;52.960;5.916;2023-02-11T12:54:58;2.00;;;0.88;;
30408;SDS011;17207;52.960;5.916;2023-02-11T12:57:09;1.60;;;0.70;;
30408;SDS011;17207;52.960;5.916;2023-02-11T13:02:10;4.57;;;1.30;;
30408;SDS011;17207;52.960;5.916;2023-02-11T13:04:40;1.23;;;0.70;;
30408;SDS011;17207;52.960;5.916;2023-02-11T13:07:13;3.28;;;0.85;;
30408;SDS011;17207;52.960;5.916;2023-02-11T13:09:42;2.75;;;0.90;;
30408;SDS011;17207;52.960;5.916;2023-02-11T13:12:08;4.95;;;0.90;;
30408;SDS011;17207;52.960;5.916;2023-02-11T13:14:53;1.92;;;1.00;;
30408;SDS011;17207;52.960;5.916;2023-02-11T13:19:49;1.50;;;0.90;;
30408;SDS011;17207;52.960;5.916;2023-02-11T13:22:23;1.75;;;0.80;;
30408;SDS011;17207;52.960;5.916;2023-02-11T13:25:01;0.77;;;0.77;;
30408;SDS011;17207;52.960;5.916;2023-02-11T13:35:29;3.40;;;0.93;;
30408;SDS011;17207;52.960;5.916;2023-02-11T13:37:56;1.38;;;0.88;;
30408;SDS011;17207;52.960;5.916;2023-02-11T13:40:23;1.10;;;0.80;;
30408;SDS011;17207;52.960;5.916;2023-02-11T13:42:56;3.85;;;0.90;;
30408;SDS011;17207;52.960;5.916;2023-02-11T13:47:53;0.85;;;0.77;;
30408;SDS011;17207;52.960;5.916;2023-02-11T13:50:21;1.25;;;0.70;;
30408;SDS011;17207;52.960;5.916;2023-02-11T13:52:48;1.02;;;0.68;;
30408;SDS011;17207;52.960;5.916;2023-02-11T13:55:22;3.22;;;0.77;;
30408;SDS011;17207;52.960;5.916;2023-02-11T14:19:45;4.32;;;1.10;;
30408;SDS011;17207;52.960;5.916;2023-02-11T14:22:12;1.38;;;0.80;;
30408;SDS011;17207;52.960;5.916;2023-02-11T14:24:56;1.73;;;0.77;;
30408;SDS011;17207;52.960;5.916;2023-02-11T14:35:20;2.83;;;0.88;;
30408;SDS011;17207;52.960;5.916;2023-02-11T14:38:24;3.58;;;1.00;;
30408;SDS011;17207;52.960;5.916;2023-02-11T14:43:25;1.95;;;0.82;;
30408;SDS011;17207;52.960;5.916;2023-02-11T14:45:53;4.20;;;0.75;;
30408;SDS011;17207;52.960;5.916;2023-02-11T14:48:21;3.17;;;0.88;;
30408;SDS011;17207;52.960;5.916;2023-02-11T14:53:30;1.50;;;0.80;;
30408;SDS011;17207;52.960;5.916;2023-02-11T14:55:57;1.85;;;0.93;;
30408;SDS011;17207;52.960;5.916;2023-02-11T14:58:27;4.85;;;1.05;;
30408;SDS011;17207;52.960;5.916;2023-02-11T15:00:55;4.07;;;0.80;;
30408;SDS011;17207;52.960;5.916;2023-02-11T15:06:04;7.50;;;0.82;;
30408;SDS011;17207;52.960;5.916;2023-02-11T15:08:31;2.75;;;0.90;;
30408;SDS011;17207;52.960;5.916;2023-02-11T15:10:59;4.63;;;1.10;;
30408;SDS011;17207;52.960;5.916;2023-02-11T15:13:27;2.88;;;1.05;;
30408;SDS011;17207;52.960;5.916;2023-02-11T15:18:21;5.05;;;0.95;;
30408;SDS011;17207;52.960;5.916;2023-02-11T15:20:49;0.80;;;0.57;;
30408;SDS011;17207;52.960;5.916;2023-02-11T15:23:19;2.30;;;1.08;;
30408;SDS011;17207;52.960;5.916;2023-02-11T15:25:46;10.55;;;1.02;;
30408;SDS011;17207;52.960;5.916;2023-02-11T15:30:55;2.25;;;0.88;;
30408;SDS011;17207;52.960;5.916;2023-02-11T15:33:21;1.75;;;0.90;;
30408;SDS011;17207;52.960;5.916;2023-02-11T15:35:49;4.00;;;1.33;;
30408;SDS011;17207;52.960;5.916;2023-02-11T15:38:15;3.10;;;0.93;;
30408;SDS011;17207;52.960;5.916;2023-02-11T15:40:50;1.23;;;0.80;;
30408;SDS011;17207;52.960;5.916;2023-02-11T15:43:16;6.10;;;0.93;;
30408;SDS011;17207;52.960;5.916;2023-02-11T15:48:22;6.78;;;1.17;;
30408;SDS011;17207;52.960;5.916;2023-02-11T15:50:52;2.17;;;0.82;;
30408;SDS011;17207;52.960;5.916;2023-02-11T15:55:52;5.57;;;1.20;;
30408;SDS011;17207;52.960;5.916;2023-02-11T15:58:19;4.07;;;1.10;;
30408;SDS011;17207;52.960;5.916;2023-02-11T16:00:46;3.85;;;1.20;;
30408;SDS011;17207;52.960;5.916;2023-02-11T16:03:27;2.15;;;1.00;;
30408;SDS011;17207;52.960;5.916;2023-02-11T16:06:13;9.38;;;1.27;;
30408;SDS011;17207;52.960;5.916;2023-02-11T16:08:39;5.07;;;1.17;;
30408;SDS011;17207;52.960;5.916;2023-02-11T16:11:17;6.63;;;1.30;;
30408;SDS011;17207;52.960;5.916;2023-02-11T16:13:47;3.70;;;1.05;;
30408;SDS011;17207;52.960;5.916;2023-02-11T16:16:17;10.10;;;1.30;;
30408;SDS011;17207;52.960;5.916;2023-02-11T16:18:46;4.68;;;1.10;;
30408;SDS011;17207;52.960;5.916;2023-02-11T16:21:15;8.07;;;1.40;;
30408;SDS011;17207;52.960;5.916;2023-02-11T16:23:42;10.90;;;1.17;;
30408;SDS011;17207;52.960;5.916;2023-02-11T16:26:21;9.75;;;1.38;;
30408;SDS011;17207;52.960;5.916;2023-02-11T16:28:49;5.88;;;1.20;;
30408;SDS011;17207;52.960;5.916;2023-02-11T16:31:16;6.63;;;1.10;;
30408;SDS011;17207;52.960;5.916;2023-02-11T16:33:42;4.57;;;0.90;;
30408;SDS011;17207;52.960;5.916;2023-02-11T16:36:11;4.57;;;1.48;;
30408;SDS011;17207;52.960;5.916;2023-02-11T16:38:38;3.28;;;1.23;;
30408;SDS011;17207;52.960;5.916;2023-02-11T16:41:04;5.63;;;1.02;;
30408;SDS011;17207;52.960;5.916;2023-02-11T16:43:30;4.00;;;1.30;;
30408;SDS011;17207;52.960;5.916;2023-02-11T16:45:57;3.72;;;1.38;;
30408;SDS011;17207;52.960;5.916;2023-02-11T16:48:23;3.38;;;1.05;;
30408;SDS011;17207;52.960;5.916;2023-02-11T16:50:49;4.78;;;1.25;;
30408;SDS011;17207;52.960;5.916;2023-02-11T16:53:17;2.90;;;1.02;;
30408;SDS011;17207;52.960;5.916;2023-02-11T16:58:09;4.50;;;1.65;;
30408;SDS011;17207;52.960;5.916;2023-02-11T17:00:35;4.50;;;1.23;;
30408;SDS011;17207;52.960;5.916;2023-02-11T17:03:03;3.03;;;1.25;;
30408;SDS011;17207;52.960;5.916;2023-02-11T17:05:30;6.43;;;1.60;;
30408;SDS011;17207;52.960;5.916;2023-02-11T17:07:56;4.25;;;1.10;;
30408;SDS011;17207;52.960;5.916;2023-02-11T17:10:23;6.57;;;1.40;;
30408;SDS011;17207;52.960;5.916;2023-02-11T17:12:49;6.18;;;1.55;;
30408;SDS011;17207;52.960;5.916;2023-02-11T17:15:16;4.90;;;1.40;;
30408;SDS011;17207;52.960;5.916;2023-02-11T17:17:42;2.38;;;1.13;;
30408;SDS011;17207;52.960;5.916;2023-02-11T17:20:10;6.40;;;1.60;;
30408;SDS011;17207;52.960;5.916;2023-02-11T17:22:36;7.45;;;1.40;;
30408;SDS011;17207;52.960;5.916;2023-02-11T17:25:02;6.93;;;1.63;;
30408;SDS011;17207;52.960;5.916;2023-02-11T17:27:28;10.02;;;1.58;;
30408;SDS011;17207;52.960;5.916;2023-02-11T17:29:54;5.85;;;2.03;;
30408;SDS011;17207;52.960;5.916;2023-02-11T17:32:20;12.32;;;1.50;;
30408;SDS011;17207;52.960;5.916;2023-02-11T17:34:46;10.05;;;2.05;;
30408;SDS011;17207;52.960;5.916;2023-02-11T17:37:12;12.05;;;2.03;;
30408;SDS011;17207;52.960;5.916;2023-02-11T17:39:39;9.02;;;2.00;;
30408;SDS011;17207;52.960;5.916;2023-02-11T17:42:05;8.50;;;2.20;;
30408;SDS011;17207;52.960;5.916;2023-02-11T17:44:32;6.38;;;2.28;;
30408;SDS011;17207;52.960;5.916;2023-02-11T17:46:58;7.15;;;2.03;;
30408;SDS011;17207;52.960;5.916;2023-02-11T17:49:24;6.88;;;1.48;;
30408;SDS011;17207;52.960;5.916;2023-02-11T17:51:51;13.15;;;2.55;;
30408;SDS011;17207;52.960;5.916;2023-02-11T17:54:17;19.58;;;1.95;;
30408;SDS011;17207;52.960;5.916;2023-02-11T17:56:45;7.72;;;2.03;;
30408;SDS011;17207;52.960;5.916;2023-02-11T17:59:12;18.60;;;2.80;;
30408;SDS011;17207;52.960;5.916;2023-02-11T18:01:39;7.60;;;1.75;;
30408;SDS011;17207;52.960;5.916;2023-02-11T18:04:06;5.53;;;1.70;;
30408;SDS011;17207;52.960;5.916;2023-02-11T18:06:33;5.10;;;1.67;;
30408;SDS011;17207;52.960;5.916;2023-02-11T18:08:59;10.93;;;2.08;;
30408;SDS011;17207;52.960;5.916;2023-02-11T18:11:28;7.25;;;1.73;;
30408;SDS011;17207;52.960;5.916;2023-02-11T18:13:55;7.32;;;1.55;;